sensor_id;sensor_type;location;lat;lon;timestamp;P1;durP1;ratioP1;P2;durP2;ratioP2
2976;SDS011;1498;51.500;7.440;2023-02-28T00:02:17;7.20;;;4.43;;
2976;SDS011;1498;51.500;7.440;2023-02-28T00:04:43;8.03;;;4.57;;
2976;SDS011;1498;51.500;7.440;2023-02-28T00:07:09;5.23;;;3.90;;
2976;SDS011;1498;51.500;7.440;2023-02-28T00:09:34;4.50;;;3.97;;
2976;SDS011;1498;51.500;7.440;2023-02-28T00:12:00;4.60;;;3.90;;
2976;SDS011;1498;51.500;7.440;2023-02-28T00:14:34;4.90;;;4.17;;
2976;SDS011;1498;51.500;7.440;2023-02-28T00:17:00;12.10;;;5.77;;
2976;SDS011;1498;51.500;7.440;2023-02-28T00:19:26;9.57;;;4.17;;
2976;SDS011;1498;51.500;7.440;2023-02-28T00:21:51;9.53;;;4.40;;
2976;SDS011;1498;51.500;7.440;2023-02-28T00:24:17;5.70;;;4.80;;
2976;SDS011;1498;51.500;7.440;2023-02-28T00:26:42;13.07;;;4.43;;
2976;SDS011;1498;51.500;7.440;2023-02-28T00:29:08;4.90;;;4.40;;
2976;SDS011;1498;51.500;7.440;2023-02-28T00:31:34;5.17;;;3.97;;
2976;SDS011;1498;51.500;7.440;2023-02-28T00:34:00;6.33;;;4.63;;
2976;SDS011;1498;51.500;7.440;2023-02-28T00:36:25;6.50;;;4.17;;
2976;SDS011;1498;51.500;7.440;2023-02-28T00:38:51;7.70;;;4.40;;
2976;SDS011;1498;51.500;7.440;2023-02-28T00:41:16;5.23;;;4.10;;
2976;SDS011;1498;51.500;7.440;2023-02-28T00:43:42;8.00;;;3.90;;
2976;SDS011;1498;51.500;7.440;2023-02-28T00:46:08;5.73;;;4.77;;
2976;SDS011;1498;51.500;7.440;2023-02-28T00:48:33;5.73;;;4.87;;
2976;SDS011;1498;51.500;7.440;2023-02-28T00:50:59;8.10;;;4.10;;
2976;SDS011;1498;51.500;7.440;2023-02-28T00:53:25;8.60;;;4.70;;
2976;SDS011;1498;51.500;7.440;2023-02-28T00:55:51;5.90;;;3.97;;
2976;SDS011;1498;51.500;7.440;2023-02-28T00:58:16;8.30;;;3.53;;
2976;SDS011;1498;51.500;7.440;2023-02-28T01:00:42;4.83;;;4.07;;
2976;SDS011;1498;51.500;7.440;2023-02-28T01:03:07;4.70;;;3.43;;
2976;SDS011;1498;51.500;7.440;2023-02-28T01:05:33;4.20;;;3.60;;
2976;SDS011;1498;51.500;7.440;2023-02-28T01:07:58;12.13;;;4.07;;
2976;SDS011;1498;51.500;7.440;2023-02-28T01:10:24;4.53;;;3.43;;
2976;SDS011;1498;51.500;7.440;2023-02-28T01:12:50;6.30;;;4.33;;
2976;SDS011;1498;51.500;7.440;2023-02-28T01:15:16;6.37;;;3.90;;
2976;SDS011;1498;51.500;7.440;2023-02-28T01:17:41;5.27;;;3.93;;
2976;SDS011;1498;51.500;7.440;2023-02-28T01:20:07;5.33;;;4.50;;
2976;SDS011;1498;51.500;7.440;2023-02-28T01:22:34;4.40;;;3.77;;
2976;SDS011;1498;51.500;7.440;2023-02-28T01:25:00;6.43;;;4.13;;
2976;SDS011;1498;51.500;7.440;2023-02-28T01:27:25;5.50;;;4.10;;
2976;SDS011;1498;51.500;7.440;2023-02-28T01:29:51;5.37;;;3.93;;
2976;SDS011;1498;51.500;7.440;2023-02-28T01:32:17;4.57;;;4.13;;
2976;SDS011;1498;51.500;7.440;2023-02-28T01:34:42;5.70;;;4.13;;
2976;SDS011;1498;51.500;7.440;2023-02-28T01:37:08;5.83;;;3.97;;
2976;SDS011;1498;51.500;7.440;2023-02-28T01:39:33;11.83;;;4.90;;
2976;SDS011;1498;51.500;7.440;2023-02-28T01:41:59;5.93;;;4.17;;
2976;SDS011;1498;51.500;7.440;2023-02-28T01:47:29;5.43;;;3.83;;
2976;SDS011;1498;51.500;7.440;2023-02-28T01:49:59;8.03;;;4.23;;
2976;SDS011;1498;51.500;7.440;2023-02-28T01:52:26;7.97;;;4.60;;
2976;SDS011;1498;51.500;7.440;2023-02-28T01:54:56;5.00;;;4.50;;
2976;SDS011;1498;51.500;7.440;2023-02-28T01:57:29;5.50;;;3.97;;
2976;SDS011;1498;51.500;7.440;2023-02-28T02:00:04;7.07;;;4.07;;
2976;SDS011;1498;51.500;7.440;2023-02-28T02:02:41;10.90;;;4.63;;
2976;SDS011;1498;51.500;7.440;2023-02-28T02:05:11;8.03;;;4.57;;
2976;SDS011;1498;51.500;7.440;2023-02-28T02:07:43;4.27;;;3.57;;
2976;SDS011;1498;51.500;7.440;2023-02-28T02:10:13;11.17;;;3.93;;
2976;SDS011;1498;51.500;7.440;2023-02-28T02:13:08;5.30;;;3.73;;
2976;SDS011;1498;51.500;7.440;2023-02-28T02:15:56;4.30;;;3.20;;
2976;SDS011;1498;51.500;7.440;2023-02-28T02:21:12;5.17;;;4.10;;
2976;SDS011;1498;51.500;7.440;2023-02-28T02:24:33;4.53;;;3.60;;
2976;SDS011;1498;51.500;7.440;2023-02-28T02:27:18;11.53;;;3.70;;
2976;SDS011;1498;51.500;7.440;2023-02-28T02:30:37;5.57;;;3.50;;
2976;SDS011;1498;51.500;7.440;2023-02-28T02:44:10;5.70;;;3.87;;
2976;SDS011;1498;51.500;7.440;2023-02-28T02:46:43;5.07;;;3.50;;
2976;SDS011;1498;51.500;7.440;2023-02-28T02:49:12;4.03;;;3.40;;
2976;SDS011;1498;51.500;7.440;2023-02-28T02:51:43;4.10;;;3.17;;
2976;SDS011;1498;51.500;7.440;2023-02-28T02:54:13;7.37;;;4.03;;
2976;SDS011;1498;51.500;7.440;2023-02-28T02:56:48;6.03;;;3.73;;
2976;SDS011;1498;51.500;7.440;2023-02-28T02:59:16;4.37;;;3.30;;
2976;SDS011;1498;51.500;7.440;2023-02-28T03:01:46;6.30;;;3.40;;
2976;SDS011;1498;51.500;7.440;2023-02-28T03:04:17;4.80;;;3.00;;
2976;SDS011;1498;51.500;7.440;2023-02-28T03:06:45;4.57;;;3.13;;
2976;SDS011;1498;51.500;7.440;2023-02-28T03:09:11;8.17;;;3.43;;
2976;SDS011;1498;51.500;7.440;2023-02-28T03:11:37;7.83;;;3.70;;
2976;SDS011;1498;51.500;7.440;2023-02-28T03:14:08;6.97;;;3.83;;
2976;SDS011;1498;51.500;7.440;2023-02-28T03:27:40;3.30;;;3.00;;
2976;SDS011;1498;51.500;7.440;2023-02-28T03:30:22;5.90;;;3.20;;
2976;SDS011;1498;51.500;7.440;2023-02-28T03:33:32;4.60;;;3.30;;
2976;SDS011;1498;51.500;7.440;2023-02-28T03:35:54;5.37;;;3.17;;
2976;SDS011;1498;51.500;7.440;2023-02-28T03:38:31;5.70;;;3.43;;
2976;SDS011;1498;51.500;7.440;2023-02-28T05:31:28;5.43;;;4.30;;
2976;SDS011;1498;51.500;7.440;2023-02-28T05:33:53;10.23;;;4.40;;
2976;SDS011;1498;51.500;7.440;2023-02-28T05:36:19;5.87;;;4.13;;
2976;SDS011;1498;51.500;7.440;2023-02-28T05:38:46;8.57;;;4.20;;
2976;SDS011;1498;51.500;7.440;2023-02-28T05:41:12;6.43;;;4.23;;
2976;SDS011;1498;51.500;7.440;2023-02-28T05:43:39;6.00;;;4.87;;
2976;SDS011;1498;51.500;7.440;2023-02-28T05:46:05;7.73;;;4.40;;
2976;SDS011;1498;51.500;7.440;2023-02-28T05:48:32;12.03;;;4.77;;
2976;SDS011;1498;51.500;7.440;2023-02-28T05:50:59;7.10;;;3.47;;
2976;SDS011;1498;51.500;7.440;2023-02-28T05:53:25;4.83;;;4.20;;
2976;SDS011;1498;51.500;7.440;2023-02-28T05:55:51;3.90;;;3.30;;
2976;SDS011;1498;51.500;7.440;2023-02-28T05:58:16;7.43;;;3.40;;
2976;SDS011;1498;51.500;7.440;2023-02-28T06:00:42;5.37;;;3.27;;
2976;SDS011;1498;51.500;7.440;2023-02-28T06:03:07;5.23;;;3.20;;
2976;SDS011;1498;51.500;7.440;2023-02-28T06:05:33;7.20;;;4.20;;
2976;SDS011;1498;51.500;7.440;2023-02-28T06:07:58;5.23;;;3.93;;
2976;SDS011;1498;51.500;7.440;2023-02-28T06:10:24;6.70;;;3.20;;
2976;SDS011;1498;51.500;7.440;2023-02-28T06:12:50;7.03;;;4.00;;
2976;SDS011;1498;51.500;7.440;2023-02-28T06:15:15;10.93;;;4.03;;
2976;SDS011;1498;51.500;7.440;2023-02-28T06:17:42;5.53;;;3.43;;
2976;SDS011;1498;51.500;7.440;2023-02-28T06:20:08;5.07;;;3.50;;
2976;SDS011;1498;51.500;7.440;2023-02-28T06:22:37;8.60;;;4.00;;
2976;SDS011;1498;51.500;7.440;2023-02-28T06:25:03;4.03;;;3.67;;
2976;SDS011;1498;51.500;7.440;2023-02-28T06:27:30;6.27;;;4.60;;
2976;SDS011;1498;51.500;7.440;2023-02-28T06:29:57;4.50;;;3.63;;
2976;SDS011;1498;51.500;7.440;2023-02-28T06:32:22;4.80;;;3.63;;
2976;SDS011;1498;51.500;7.440;2023-02-28T06:34:48;6.60;;;4.00;;
2976;SDS011;1498;51.500;7.440;2023-02-28T06:37:15;8.53;;;3.80;;
2976;SDS011;1498;51.500;7.440;2023-02-28T06:39:41;5.60;;;4.00;;
2976;SDS011;1498;51.500;7.440;2023-02-28T06:42:06;4.77;;;3.50;;
2976;SDS011;1498;51.500;7.440;2023-02-28T06:44:32;4.50;;;3.43;;
2976;SDS011;1498;51.500;7.440;2023-02-28T06:47:00;7.00;;;3.27;;
2976;SDS011;1498;51.500;7.440;2023-02-28T06:49:28;5.53;;;3.53;;
2976;SDS011;1498;51.500;7.440;2023-02-28T06:51:54;19.63;;;4.30;;
2976;SDS011;1498;51.500;7.440;2023-02-28T06:54:19;11.87;;;4.37;;
2976;SDS011;1498;51.500;7.440;2023-02-28T06:56:45;7.57;;;4.47;;
2976;SDS011;1498;51.500;7.440;2023-02-28T06:59:11;4.40;;;3.83;;
2976;SDS011;1498;51.500;7.440;2023-02-28T07:01:37;3.43;;;3.00;;
2976;SDS011;1498;51.500;7.440;2023-02-28T07:04:04;4.20;;;3.80;;
2976;SDS011;1498;51.500;7.440;2023-02-28T07:06:30;3.90;;;3.47;;
2976;SDS011;1498;51.500;7.440;2023-02-28T07:08:56;5.03;;;4.07;;
2976;SDS011;1498;51.500;7.440;2023-02-28T07:11:22;5.90;;;3.67;;
2976;SDS011;1498;51.500;7.440;2023-02-28T07:13:53;5.60;;;4.27;;
2976;SDS011;1498;51.500;7.440;2023-02-28T07:16:20;5.33;;;4.03;;
2976;SDS011;1498;51.500;7.440;2023-02-28T07:18:46;6.40;;;3.70;;
2976;SDS011;1498;51.500;7.440;2023-02-28T07:21:12;11.23;;;4.20;;
2976;SDS011;1498;51.500;7.440;2023-02-28T07:23:37;4.90;;;3.97;;
2976;SDS011;1498;51.500;7.440;2023-02-28T07:26:04;8.80;;;4.30;;
2976;SDS011;1498;51.500;7.440;2023-02-28T07:28:30;5.00;;;2.93;;
2976;SDS011;1498;51.500;7.440;2023-02-28T07:30:56;5.80;;;3.97;;
2976;SDS011;1498;51.500;7.440;2023-02-28T07:33:21;5.93;;;4.40;;
2976;SDS011;1498;51.500;7.440;2023-02-28T07:35:48;6.03;;;3.40;;
2976;SDS011;1498;51.500;7.440;2023-02-28T07:38:14;10.57;;;4.37;;
2976;SDS011;1498;51.500;7.440;2023-02-28T07:40:40;7.37;;;4.27;;
2976;SDS011;1498;51.500;7.440;2023-02-28T07:43:06;11.70;;;5.10;;
2976;SDS011;1498;51.500;7.440;2023-02-28T07:45:31;9.00;;;5.37;;
2976;SDS011;1498;51.500;7.440;2023-02-28T07:47:59;12.80;;;7.13;;
2976;SDS011;1498;51.500;7.440;2023-02-28T07:50:25;13.00;;;5.30;;
2976;SDS011;1498;51.500;7.440;2023-02-28T07:52:54;8.60;;;4.50;;
2976;SDS011;1498;51.500;7.440;2023-02-28T07:55:19;7.67;;;5.10;;
2976;SDS011;1498;51.500;7.440;2023-02-28T07:57:45;7.27;;;4.03;;
2976;SDS011;1498;51.500;7.440;2023-02-28T08:00:10;6.37;;;3.50;;
2976;SDS011;1498;51.500;7.440;2023-02-28T08:02:37;9.70;;;4.43;;
2976;SDS011;1498;51.500;7.440;2023-02-28T08:05:03;10.43;;;5.17;;
2976;SDS011;1498;51.500;7.440;2023-02-28T08:07:30;5.93;;;3.97;;
2976;SDS011;1498;51.500;7.440;2023-02-28T08:09:55;6.53;;;4.23;;
2976;SDS011;1498;51.500;7.440;2023-02-28T08:12:21;7.33;;;4.60;;
2976;SDS011;1498;51.500;7.440;2023-02-28T08:14:46;4.57;;;3.10;;
2976;SDS011;1498;51.500;7.440;2023-02-28T08:17:12;5.20;;;3.77;;
2976;SDS011;1498;51.500;7.440;2023-02-28T08:19:37;8.23;;;4.33;;
2976;SDS011;1498;51.500;7.440;2023-02-28T08:22:03;5.90;;;3.60;;
2976;SDS011;1498;51.500;7.440;2023-02-28T08:24:28;3.90;;;3.40;;
2976;SDS011;1498;51.500;7.440;2023-02-28T08:26:54;5.20;;;2.80;;
2976;SDS011;1498;51.500;7.440;2023-02-28T08:29:20;3.73;;;3.43;;
2976;SDS011;1498;51.500;7.440;2023-02-28T08:31:46;5.67;;;3.67;;
2976;SDS011;1498;51.500;7.440;2023-02-28T08:34:13;6.33;;;4.97;;
2976;SDS011;1498;51.500;7.440;2023-02-28T08:36:40;5.77;;;3.87;;
2976;SDS011;1498;51.500;7.440;2023-02-28T08:39:06;6.27;;;3.40;;
2976;SDS011;1498;51.500;7.440;2023-02-28T08:41:32;8.47;;;4.33;;
2976;SDS011;1498;51.500;7.440;2023-02-28T08:43:58;5.30;;;4.17;;
2976;SDS011;1498;51.500;7.440;2023-02-28T08:46:24;7.00;;;4.50;;
2976;SDS011;1498;51.500;7.440;2023-02-28T08:48:53;6.53;;;3.63;;
2976;SDS011;1498;51.500;7.440;2023-02-28T08:51:20;5.43;;;3.63;;
2976;SDS011;1498;51.500;7.440;2023-02-28T08:53:52;8.90;;;3.87;;
2976;SDS011;1498;51.500;7.440;2023-02-28T08:56:19;5.97;;;3.80;;
2976;SDS011;1498;51.500;7.440;2023-02-28T08:58:46;6.10;;;4.47;;
2976;SDS011;1498;51.500;7.440;2023-02-28T09:01:13;8.17;;;4.00;;
2976;SDS011;1498;51.500;7.440;2023-02-28T09:03:41;3.90;;;3.27;;
2976;SDS011;1498;51.500;7.440;2023-02-28T09:06:08;3.53;;;2.83;;
2976;SDS011;1498;51.500;7.440;2023-02-28T09:08:34;4.33;;;3.37;;
2976;SDS011;1498;51.500;7.440;2023-02-28T09:11:00;3.83;;;3.50;;
2976;SDS011;1498;51.500;7.440;2023-02-28T09:13:26;5.23;;;2.93;;
2976;SDS011;1498;51.500;7.440;2023-02-28T09:15:53;7.33;;;2.77;;
2976;SDS011;1498;51.500;7.440;2023-02-28T09:18:19;5.00;;;3.13;;
2976;SDS011;1498;51.500;7.440;2023-02-28T09:20:45;10.30;;;3.73;;
2976;SDS011;1498;51.500;7.440;2023-02-28T09:23:11;4.00;;;3.47;;
2976;SDS011;1498;51.500;7.440;2023-02-28T09:25:37;5.07;;;3.80;;
2976;SDS011;1498;51.500;7.440;2023-02-28T09:28:09;7.20;;;3.50;;
2976;SDS011;1498;51.500;7.440;2023-02-28T09:30:35;4.10;;;2.90;;
2976;SDS011;1498;51.500;7.440;2023-02-28T09:33:00;3.63;;;3.23;;
2976;SDS011;1498;51.500;7.440;2023-02-28T09:35:26;9.53;;;3.00;;
2976;SDS011;1498;51.500;7.440;2023-02-28T09:37:51;5.20;;;3.40;;
2976;SDS011;1498;51.500;7.440;2023-02-28T09:40:18;4.07;;;2.83;;
2976;SDS011;1498;51.500;7.440;2023-02-28T09:42:46;3.17;;;2.80;;
2976;SDS011;1498;51.500;7.440;2023-02-28T09:45:24;3.50;;;2.60;;
2976;SDS011;1498;51.500;7.440;2023-02-28T09:47:56;3.60;;;3.10;;
2976;SDS011;1498;51.500;7.440;2023-02-28T09:50:51;6.30;;;2.53;;
2976;SDS011;1498;51.500;7.440;2023-02-28T09:53:28;3.83;;;2.93;;
2976;SDS011;1498;51.500;7.440;2023-02-28T09:56:01;4.20;;;3.03;;
2976;SDS011;1498;51.500;7.440;2023-02-28T10:01:34;3.57;;;3.10;;
2976;SDS011;1498;51.500;7.440;2023-02-28T10:04:16;2.57;;;2.37;;
2976;SDS011;1498;51.500;7.440;2023-02-28T10:06:51;6.43;;;4.43;;
2976;SDS011;1498;51.500;7.440;2023-02-28T10:09:22;3.70;;;2.90;;
2976;SDS011;1498;51.500;7.440;2023-02-28T10:11:56;5.37;;;3.70;;
2976;SDS011;1498;51.500;7.440;2023-02-28T10:14:27;3.57;;;2.77;;
2976;SDS011;1498;51.500;7.440;2023-02-28T10:16:55;2.90;;;2.53;;
2976;SDS011;1498;51.500;7.440;2023-02-28T10:19:24;3.37;;;2.93;;
2976;SDS011;1498;51.500;7.440;2023-02-28T10:24:39;4.90;;;2.47;;
2976;SDS011;1498;51.500;7.440;2023-02-28T10:27:12;4.27;;;2.80;;
2976;SDS011;1498;51.500;7.440;2023-02-28T10:29:43;4.70;;;2.77;;
2976;SDS011;1498;51.500;7.440;2023-02-28T10:32:15;5.27;;;2.17;;
2976;SDS011;1498;51.500;7.440;2023-02-28T10:34:43;4.60;;;2.10;;
2976;SDS011;1498;51.500;7.440;2023-02-28T10:37:09;2.27;;;2.07;;
2976;SDS011;1498;51.500;7.440;2023-02-28T10:42:18;2.20;;;2.00;;
2976;SDS011;1498;51.500;7.440;2023-02-28T10:44:45;2.70;;;2.27;;
2976;SDS011;1498;51.500;7.440;2023-02-28T10:47:17;3.07;;;2.63;;
2976;SDS011;1498;51.500;7.440;2023-02-28T10:49:48;7.60;;;2.90;;
2976;SDS011;1498;51.500;7.440;2023-02-28T10:52:15;3.23;;;2.50;;
2976;SDS011;1498;51.500;7.440;2023-02-28T10:55:16;4.13;;;2.30;;
2976;SDS011;1498;51.500;7.440;2023-02-28T10:57:47;2.83;;;2.57;;
2976;SDS011;1498;51.500;7.440;2023-02-28T11:00:18;3.20;;;2.67;;
2976;SDS011;1498;51.500;7.440;2023-02-28T11:02:46;6.90;;;2.73;;
2976;SDS011;1498;51.500;7.440;2023-02-28T11:05:32;5.60;;;2.17;;
2976;SDS011;1498;51.500;7.440;2023-02-28T11:10:37;2.40;;;2.20;;
2976;SDS011;1498;51.500;7.440;2023-02-28T11:13:03;3.40;;;3.10;;
2976;SDS011;1498;51.500;7.440;2023-02-28T11:15:30;6.50;;;2.40;;
2976;SDS011;1498;51.500;7.440;2023-02-28T11:20:43;2.67;;;2.47;;
2976;SDS011;1498;51.500;7.440;2023-02-28T11:23:14;6.10;;;2.90;;
2976;SDS011;1498;51.500;7.440;2023-02-28T11:25:45;2.93;;;2.33;;
2976;SDS011;1498;51.500;7.440;2023-02-28T11:28:32;6.53;;;2.40;;
2976;SDS011;1498;51.500;7.440;2023-02-28T11:33:43;4.07;;;2.30;;
2976;SDS011;1498;51.500;7.440;2023-02-28T11:36:21;2.90;;;2.43;;
2976;SDS011;1498;51.500;7.440;2023-02-28T11:38:49;2.93;;;2.50;;
2976;SDS011;1498;51.500;7.440;2023-02-28T11:41:25;3.80;;;2.80;;
2976;SDS011;1498;51.500;7.440;2023-02-28T11:44:21;7.10;;;3.00;;
2976;SDS011;1498;51.500;7.440;2023-02-28T11:46:49;2.40;;;1.90;;
2976;SDS011;1498;51.500;7.440;2023-02-28T11:49:32;3.50;;;2.53;;
2976;SDS011;1498;51.500;7.440;2023-02-28T11:57:44;4.93;;;3.10;;
2976;SDS011;1498;51.500;7.440;2023-02-28T12:00:55;4.47;;;3.50;;
2976;SDS011;1498;51.500;7.440;2023-02-28T12:03:38;4.67;;;3.07;;
2976;SDS011;1498;51.500;7.440;2023-02-28T12:09:01;11.43;;;2.80;;
2976;SDS011;1498;51.500;7.440;2023-02-28T12:11:43;6.50;;;2.80;;
2976;SDS011;1498;51.500;7.440;2023-02-28T12:22:40;3.10;;;2.80;;
2976;SDS011;1498;51.500;7.440;2023-02-28T12:27:54;4.20;;;3.20;;
2976;SDS011;1498;51.500;7.440;2023-02-28T12:30:30;5.10;;;2.80;;
2976;SDS011;1498;51.500;7.440;2023-02-28T12:33:08;4.27;;;3.30;;
2976;SDS011;1498;51.500;7.440;2023-02-28T12:35:55;7.97;;;3.00;;
2976;SDS011;1498;51.500;7.440;2023-02-28T12:38:23;6.47;;;4.43;;
2976;SDS011;1498;51.500;7.440;2023-02-28T12:43:26;7.73;;;3.63;;
2976;SDS011;1498;51.500;7.440;2023-02-28T12:46:02;3.30;;;2.87;;
2976;SDS011;1498;51.500;7.440;2023-02-28T12:48:40;6.07;;;3.63;;
2976;SDS011;1498;51.500;7.440;2023-02-28T12:51:11;3.43;;;2.90;;
2976;SDS011;1498;51.500;7.440;2023-02-28T12:53:45;4.30;;;3.40;;
2976;SDS011;1498;51.500;7.440;2023-02-28T13:10:14;3.03;;;2.63;;
2976;SDS011;1498;51.500;7.440;2023-02-28T13:12:48;3.70;;;3.27;;
2976;SDS011;1498;51.500;7.440;2023-02-28T13:15:20;4.43;;;4.03;;
2976;SDS011;1498;51.500;7.440;2023-02-28T13:17:54;6.20;;;4.00;;
2976;SDS011;1498;51.500;7.440;2023-02-28T13:20:23;4.30;;;3.90;;
2976;SDS011;1498;51.500;7.440;2023-02-28T13:22:56;10.70;;;3.67;;
2976;SDS011;1498;51.500;7.440;2023-02-28T13:27:51;3.83;;;3.53;;
2976;SDS011;1498;51.500;7.440;2023-02-28T13:38:55;4.10;;;3.70;;
2976;SDS011;1498;51.500;7.440;2023-02-28T13:46:30;8.50;;;3.93;;
2976;SDS011;1498;51.500;7.440;2023-02-28T13:48:56;4.83;;;3.30;;
2976;SDS011;1498;51.500;7.440;2023-02-28T13:51:42;7.73;;;3.57;;
2976;SDS011;1498;51.500;7.440;2023-02-28T13:57:35;4.30;;;3.70;;
2976;SDS011;1498;51.500;7.440;2023-02-28T14:03:27;4.70;;;3.73;;
2976;SDS011;1498;51.500;7.440;2023-02-28T14:06:46;5.23;;;4.77;;
2976;SDS011;1498;51.500;7.440;2023-02-28T14:18:01;4.87;;;3.47;;
2976;SDS011;1498;51.500;7.440;2023-02-28T14:20:29;5.13;;;3.90;;
2976;SDS011;1498;51.500;7.440;2023-02-28T14:28:05;4.20;;;3.80;;
2976;SDS011;1498;51.500;7.440;2023-02-28T14:33:31;4.07;;;3.70;;
2976;SDS011;1498;51.500;7.440;2023-02-28T14:36:16;4.10;;;3.73;;
2976;SDS011;1498;51.500;7.440;2023-02-28T14:39:13;6.97;;;5.03;;
2976;SDS011;1498;51.500;7.440;2023-02-28T14:41:41;5.20;;;4.40;;
2976;SDS011;1498;51.500;7.440;2023-02-28T14:46:53;4.40;;;3.83;;
2976;SDS011;1498;51.500;7.440;2023-02-28T14:51:47;5.67;;;4.00;;
2976;SDS011;1498;51.500;7.440;2023-02-28T14:54:16;6.80;;;4.27;;
2976;SDS011;1498;51.500;7.440;2023-02-28T14:56:48;6.10;;;4.43;;
2976;SDS011;1498;51.500;7.440;2023-02-28T14:59:23;5.97;;;4.60;;
2976;SDS011;1498;51.500;7.440;2023-02-28T15:01:51;4.70;;;3.90;;
2976;SDS011;1498;51.500;7.440;2023-02-28T15:04:26;5.70;;;4.03;;
2976;SDS011;1498;51.500;7.440;2023-02-28T15:09:38;6.13;;;3.90;;
2976;SDS011;1498;51.500;7.440;2023-02-28T15:12:04;4.97;;;4.00;;
2976;SDS011;1498;51.500;7.440;2023-02-28T15:14:30;5.10;;;3.57;;
2976;SDS011;1498;51.500;7.440;2023-02-28T15:16:58;4.30;;;3.60;;
2976;SDS011;1498;51.500;7.440;2023-02-28T15:19:30;3.40;;;3.03;;
2976;SDS011;1498;51.500;7.440;2023-02-28T15:22:00;6.77;;;4.77;;
2976;SDS011;1498;51.500;7.440;2023-02-28T15:27:19;8.70;;;4.80;;
2976;SDS011;1498;51.500;7.440;2023-02-28T15:29:47;6.43;;;5.00;;
2976;SDS011;1498;51.500;7.440;2023-02-28T15:32:29;7.07;;;3.90;;
2976;SDS011;1498;51.500;7.440;2023-02-28T15:34:55;4.10;;;3.70;;
2976;SDS011;1498;51.500;7.440;2023-02-28T15:37:45;4.07;;;3.67;;
2976;SDS011;1498;51.500;7.440;2023-02-28T15:40:23;4.13;;;3.73;;
2976;SDS011;1498;51.500;7.440;2023-02-28T15:42:59;6.20;;;4.37;;
2976;SDS011;1498;51.500;7.440;2023-02-28T15:45:51;4.83;;;4.40;;
2976;SDS011;1498;51.500;7.440;2023-02-28T15:48:42;5.43;;;4.93;;
2976;SDS011;1498;51.500;7.440;2023-02-28T15:51:16;8.13;;;4.10;;
2976;SDS011;1498;51.500;7.440;2023-02-28T15:59:17;4.67;;;4.27;;
2976;SDS011;1498;51.500;7.440;2023-02-28T16:01:45;3.80;;;3.50;;
2976;SDS011;1498;51.500;7.440;2023-02-28T16:04:18;5.10;;;4.60;;
2976;SDS011;1498;51.500;7.440;2023-02-28T16:07:05;4.80;;;4.30;;
2976;SDS011;1498;51.500;7.440;2023-02-28T16:09:30;6.63;;;4.73;;
2976;SDS011;1498;51.500;7.440;2023-02-28T16:11:59;6.00;;;3.63;;
2976;SDS011;1498;51.500;7.440;2023-02-28T16:14:29;4.77;;;4.27;;
2976;SDS011;1498;51.500;7.440;2023-02-28T16:17:05;6.90;;;3.93;;
2976;SDS011;1498;51.500;7.440;2023-02-28T16:19:38;4.90;;;4.00;;
2976;SDS011;1498;51.500;7.440;2023-02-28T16:22:04;6.00;;;4.10;;
2976;SDS011;1498;51.500;7.440;2023-02-28T16:24:29;4.43;;;3.60;;
2976;SDS011;1498;51.500;7.440;2023-02-28T16:26:55;4.70;;;3.50;;
2976;SDS011;1498;51.500;7.440;2023-02-28T16:29:25;4.60;;;3.97;;
2976;SDS011;1498;51.500;7.440;2023-02-28T16:31:54;4.50;;;3.90;;
2976;SDS011;1498;51.500;7.440;2023-02-28T16:34:20;5.83;;;3.70;;
2976;SDS011;1498;51.500;7.440;2023-02-28T16:36:47;4.70;;;3.53;;
2976;SDS011;1498;51.500;7.440;2023-02-28T16:39:13;4.30;;;3.90;;
2976;SDS011;1498;51.500;7.440;2023-02-28T16:41:40;9.73;;;3.30;;
2976;SDS011;1498;51.500;7.440;2023-02-28T16:44:10;5.90;;;3.20;;
2976;SDS011;1498;51.500;7.440;2023-02-28T16:46:39;4.40;;;4.00;;
2976;SDS011;1498;51.500;7.440;2023-02-28T16:49:05;5.93;;;4.10;;
2976;SDS011;1498;51.500;7.440;2023-02-28T16:51:36;4.37;;;3.97;;
2976;SDS011;1498;51.500;7.440;2023-02-28T16:54:01;5.40;;;4.20;;
2976;SDS011;1498;51.500;7.440;2023-02-28T16:56:27;8.50;;;4.13;;
2976;SDS011;1498;51.500;7.440;2023-02-28T16:58:52;4.47;;;4.07;;
2976;SDS011;1498;51.500;7.440;2023-02-28T17:01:22;4.70;;;4.20;;
2976;SDS011;1498;51.500;7.440;2023-02-28T17:03:48;7.53;;;4.93;;
2976;SDS011;1498;51.500;7.440;2023-02-28T17:06:16;4.60;;;3.53;;
2976;SDS011;1498;51.500;7.440;2023-02-28T17:08:44;10.83;;;4.20;;
2976;SDS011;1498;51.500;7.440;2023-02-28T17:11:10;4.83;;;4.23;;
2976;SDS011;1498;51.500;7.440;2023-02-28T17:13:35;6.80;;;3.97;;
2976;SDS011;1498;51.500;7.440;2023-02-28T17:16:01;6.33;;;4.20;;
2976;SDS011;1498;51.500;7.440;2023-02-28T17:18:27;8.45;;;4.65;;
2976;SDS011;1498;51.500;7.440;2023-02-28T17:20:58;4.10;;;3.80;;
2976;SDS011;1498;51.500;7.440;2023-02-28T17:23:24;6.83;;;3.97;;
2976;SDS011;1498;51.500;7.440;2023-02-28T17:25:50;6.63;;;3.87;;
2976;SDS011;1498;51.500;7.440;2023-02-28T17:28:19;4.00;;;3.40;;
2976;SDS011;1498;51.500;7.440;2023-02-28T17:30:46;7.90;;;4.53;;
2976;SDS011;1498;51.500;7.440;2023-02-28T17:33:12;5.77;;;3.63;;
2976;SDS011;1498;51.500;7.440;2023-02-28T17:35:38;6.17;;;4.17;;
2976;SDS011;1498;51.500;7.440;2023-02-28T17:38:03;6.50;;;4.57;;
2976;SDS011;1498;51.500;7.440;2023-02-28T17:40:29;8.37;;;4.30;;
2976;SDS011;1498;51.500;7.440;2023-02-28T17:42:54;8.23;;;4.07;;
2976;SDS011;1498;51.500;7.440;2023-02-28T17:45:21;5.50;;;4.87;;
2976;SDS011;1498;51.500;7.440;2023-02-28T17:47:48;6.90;;;5.17;;
2976;SDS011;1498;51.500;7.440;2023-02-28T17:50:18;12.93;;;3.83;;
2976;SDS011;1498;51.500;7.440;2023-02-28T17:52:45;5.20;;;4.40;;
2976;SDS011;1498;51.500;7.440;2023-02-28T17:55:11;7.50;;;6.50;;
2976;SDS011;1498;51.500;7.440;2023-02-28T17:57:37;5.73;;;5.03;;
2976;SDS011;1498;51.500;7.440;2023-02-28T18:00:03;8.27;;;5.20;;
2976;SDS011;1498;51.500;7.440;2023-02-28T18:02:31;7.43;;;6.03;;
2976;SDS011;1498;51.500;7.440;2023-02-28T18:04:57;10.10;;;5.33;;
2976;SDS011;1498;51.500;7.440;2023-02-28T18:07:23;10.00;;;5.27;;
2976;SDS011;1498;51.500;7.440;2023-02-28T18:09:49;8.80;;;4.80;;
2976;SDS011;1498;51.500;7.440;2023-02-28T18:12:15;7.37;;;4.43;;
2976;SDS011;1498;51.500;7.440;2023-02-28T18:14:40;26.47;;;7.60;;
2976;SDS011;1498;51.500;7.440;2023-02-28T18:17:08;13.10;;;7.17;;
2976;SDS011;1498;51.500;7.440;2023-02-28T18:19:37;8.23;;;5.03;;
2976;SDS011;1498;51.500;7.440;2023-02-28T18:22:03;10.43;;;5.80;;
2976;SDS011;1498;51.500;7.440;2023-02-28T18:24:31;6.17;;;4.73;;
2976;SDS011;1498;51.500;7.440;2023-02-28T18:26:57;6.50;;;5.10;;
2976;SDS011;1498;51.500;7.440;2023-02-28T18:29:24;10.57;;;5.73;;
2976;SDS011;1498;51.500;7.440;2023-02-28T18:31:52;6.87;;;4.73;;
2976;SDS011;1498;51.500;7.440;2023-02-28T18:34:18;8.73;;;4.87;;
2976;SDS011;1498;51.500;7.440;2023-02-28T18:36:45;7.00;;;4.40;;
2976;SDS011;1498;51.500;7.440;2023-02-28T18:39:13;8.10;;;5.13;;
2976;SDS011;1498;51.500;7.440;2023-02-28T18:41:39;6.03;;;5.07;;
2976;SDS011;1498;51.500;7.440;2023-02-28T18:44:05;12.20;;;5.30;;
2976;SDS011;1498;51.500;7.440;2023-02-28T18:46:31;9.93;;;5.70;;
2976;SDS011;1498;51.500;7.440;2023-02-28T18:48:56;7.20;;;5.63;;
2976;SDS011;1498;51.500;7.440;2023-02-28T18:51:23;9.47;;;5.57;;
2976;SDS011;1498;51.500;7.440;2023-02-28T18:53:50;7.30;;;5.43;;
2976;SDS011;1498;51.500;7.440;2023-02-28T18:56:17;6.10;;;5.53;;
2976;SDS011;1498;51.500;7.440;2023-02-28T18:58:44;10.97;;;6.20;;
2976;SDS011;1498;51.500;7.440;2023-02-28T19:01:12;9.03;;;6.93;;
2976;SDS011;1498;51.500;7.440;2023-02-28T19:03:43;11.37;;;6.63;;
2976;SDS011;1498;51.500;7.440;2023-02-28T19:06:09;8.63;;;7.00;;
2976;SDS011;1498;51.500;7.440;2023-02-28T19:08:35;10.13;;;7.17;;
2976;SDS011;1498;51.500;7.440;2023-02-28T19:11:10;15.33;;;7.07;;
2976;SDS011;1498;51.500;7.440;2023-02-28T19:13:40;14.67;;;8.07;;
2976;SDS011;1498;51.500;7.440;2023-02-28T19:16:07;14.03;;;8.00;;
2976;SDS011;1498;51.500;7.440;2023-02-28T19:18:34;12.10;;;8.10;;
2976;SDS011;1498;51.500;7.440;2023-02-28T19:21:00;9.70;;;7.43;;
2976;SDS011;1498;51.500;7.440;2023-02-28T19:23:26;10.23;;;8.40;;
2976;SDS011;1498;51.500;7.440;2023-02-28T19:25:52;11.97;;;8.60;;
2976;SDS011;1498;51.500;7.440;2023-02-28T19:28:18;16.93;;;9.13;;
2976;SDS011;1498;51.500;7.440;2023-02-28T19:30:47;12.40;;;8.30;;
2976;SDS011;1498;51.500;7.440;2023-02-28T19:33:14;8.63;;;6.63;;
2976;SDS011;1498;51.500;7.440;2023-02-28T19:35:40;11.03;;;7.03;;
2976;SDS011;1498;51.500;7.440;2023-02-28T19:38:06;11.30;;;7.80;;